Terminal Aerodrome Forecast
Issued by NWS Bismarck, ND

Home | Current Version | Previous Version | Graphics & Text | Print | Product List | Glossary On
Versions: 1 2 3 4 5 6 7 8 9 10 11 12 13 14 15 16 17 18
000
FTUS43 KBIS 231407 AAA
TAFISN
TAF AMD
KISN 231407Z 2314/2412 VRB03KT 4SM BR SCT012 BKN200
      TEMPO 2314/2315 P6SM NSW
     FM231500 VRB03KT P6SM BKN200
     FM232000 01006KT P6SM SCT200
     FM241100 VRB03KT P6SM FEW040=

USA.gov is the U.S. government's official web portal to all federal, state and local government web resources and services.